createdAt,value
2023-01-06T00:01:54.427Z,99357.94
2023-01-06T00:04:39.627Z,99366.72
2023-01-06T00:07:24.717Z,99365.50
2023-01-06T00:10:11.637Z,99357.16
2023-01-06T00:12:57.095Z,99357.16
2023-01-06T00:15:42.260Z,99354.38
2023-01-06T00:18:27.661Z,99338.94
2023-01-06T00:21:14.418Z,99346.03
2023-01-06T00:23:59.697Z,99349.59
2023-01-06T00:26:44.894Z,99344.84
2023-01-06T00:29:30.287Z,99338.50
2023-01-06T00:32:15.758Z,99346.81
2023-01-06T00:35:01.572Z,99346.03
2023-01-06T00:37:46.848Z,99348.81
2023-01-06T00:40:33.296Z,99350.41
2023-01-06T00:43:18.661Z,99353.59
2023-01-06T00:46:04.174Z,99347.25
2023-01-06T00:49:03.916Z,99338.56
2023-01-06T00:51:52.204Z,99342.91
2023-01-06T00:54:37.738Z,99336.16
2023-01-06T00:57:22.919Z,99335.34
2023-01-06T01:00:11.655Z,99331.41
2023-01-06T01:02:57.265Z,99337.78
2023-01-06T01:05:43.375Z,99331.41
2023-01-06T01:08:29.218Z,99332.63
2023-01-06T01:11:34.939Z,99334.63
2023-01-06T01:14:21.007Z,99337.41
2023-01-06T01:17:07.111Z,99349.31
2023-01-06T01:19:55.503Z,99341.75
2023-01-06T01:22:41.003Z,99338.19
2023-01-06T01:25:26.276Z,99329.84
2023-01-06T01:28:11.656Z,99325.88
2023-01-06T01:31:01.077Z,99336.19
2023-01-06T01:33:46.381Z,99325.88
2023-01-06T01:36:32.337Z,99325.09
2023-01-06T01:39:19.904Z,99338.19
2023-01-06T01:42:11.462Z,99329.84
2023-01-06T01:45:04.051Z,99327.09
2023-01-06T01:47:55.762Z,99336.97
2023-01-06T01:50:47.201Z,99323.09
2023-01-06T01:53:44.034Z,99329.09
2023-01-06T01:56:32.087Z,99314.38
2023-01-06T01:59:28.533Z,99318.38
2023-01-06T02:02:16.643Z,99317.16
2023-01-06T02:05:03.133Z,99310.06
2023-01-06T02:07:49.946Z,99310.06
2023-01-06T02:10:35.267Z,99302.91
2023-01-06T02:13:22.882Z,99303.72
2023-01-06T02:16:11.510Z,99306.91
2023-01-06T02:19:10.555Z,99288.25
2023-01-06T02:22:13.187Z,99299.78
2023-01-06T02:25:36.268Z,99297.78
2023-01-06T02:29:00.020Z,99288.69
2023-01-06T02:31:58.845Z,99279.13
2023-01-06T02:35:03.006Z,99273.56
2023-01-06T02:38:07.352Z,99266.47
2023-01-06T02:41:11.516Z,99268.00
2023-01-06T02:44:03.582Z,99265.22
2023-01-06T02:46:57.088Z,99262.47
2023-01-06T02:49:46.344Z,99261.69
2023-01-06T02:52:42.928Z,99258.91
2023-01-06T02:55:36.863Z,99256.91
2023-01-06T02:58:51.790Z,99249.78
2023-01-06T03:01:49.317Z,99244.22
2023-01-06T03:04:43.167Z,99243.88
2023-01-06T03:07:32.862Z,99232.75
2023-01-06T03:10:22.207Z,99227.63
2023-01-06T03:13:43.045Z,99228.84
2023-01-06T03:16:28.606Z,99221.28
2023-01-06T03:19:14.660Z,99228.03
2023-01-06T03:22:01.987Z,99224.47
2023-01-06T03:24:47.537Z,99223.28
2023-01-06T03:27:33.643Z,99221.28
2023-01-06T03:30:19.632Z,99216.50
2023-01-06T03:33:32.657Z,99207.41
2023-01-06T03:36:39.111Z,99201.84
2023-01-06T03:39:34.108Z,99203.84
2023-01-06T03:42:59.301Z,99199.47
2023-01-06T03:45:53.936Z,99191.91
2023-01-06T03:49:29.699Z,99193.91
2023-01-06T03:52:27.817Z,99198.28
2023-01-06T03:55:25.207Z,99207.81
2023-01-06T03:58:12.385Z,99200.25
2023-01-06T04:00:58.506Z,99205.81
2023-01-06T04:03:46.870Z,99203.84
2023-01-06T04:06:32.621Z,99196.69
2023-01-06T04:09:21.898Z,99186.38
2023-01-06T04:12:26.281Z,99178.84
2023-01-06T04:15:16.175Z,99186.38
2023-01-06T04:18:04.461Z,99177.25
2023-01-06T04:20:52.656Z,99184.81
2023-01-06T04:23:47.994Z,99176.84
2023-01-06T04:26:34.030Z,99170.94
2023-01-06T04:29:19.753Z,99173.28
2023-01-06T04:32:05.520Z,99164.50
2023-01-06T04:34:51.518Z,99157.41
2023-01-06T04:37:37.626Z,99157.75
2023-01-06T04:40:23.101Z,99158.94
2023-01-06T04:43:13.372Z,99147.44
2023-01-06T04:45:59.455Z,99144.66
2023-01-06T04:48:45.142Z,99156.53
2023-01-06T04:51:30.506Z,99155.34
2023-01-06T04:54:16.376Z,99147.34
2023-01-06T04:57:01.809Z,99148.56
2023-01-06T04:59:46.937Z,99147.28
2023-01-06T05:02:32.339Z,99139.69
2023-01-06T05:05:17.609Z,99140.81
2023-01-06T05:08:02.904Z,99128.94
2023-01-06T05:10:48.172Z,99137.63
2023-01-06T05:13:35.218Z,99137.13
2023-01-06T05:16:27.486Z,99138.63
2023-01-06T05:19:13.281Z,99136.97
2023-01-06T05:21:58.709Z,99140.91
2023-01-06T05:24:44.268Z,99132.50
2023-01-06T05:27:30.076Z,99124.88
2023-01-06T05:30:15.385Z,99127.59
2023-01-06T05:33:02.024Z,99133.09
2023-01-06T05:35:48.336Z,99116.38
2023-01-06T05:38:34.393Z,99113.84
2023-01-06T05:41:20.413Z,99108.22
2023-01-06T05:44:06.158Z,99114.50
2023-01-06T05:46:51.979Z,99105.66
2023-01-06T05:49:37.675Z,99104.88
2023-01-06T05:52:22.953Z,99099.31
2023-01-06T05:55:09.002Z,99105.13
2023-01-06T05:57:54.461Z,99107.50
2023-01-06T06:00:39.919Z,99103.94
2023-01-06T06:03:25.405Z,99107.50
2023-01-06T06:06:10.765Z,99097.91
2023-01-06T06:08:56.030Z,99105.13
2023-01-06T06:11:41.207Z,99101.63
2023-01-06T06:14:26.829Z,99106.78
2023-01-06T06:17:12.358Z,99112.84
2023-01-06T06:19:57.636Z,99108.50
2023-01-06T06:22:43.198Z,99107.34
2023-01-06T06:25:29.525Z,99109.38
2023-01-06T06:28:15.069Z,99109.00
2023-01-06T06:31:14.079Z,99103.88
2023-01-06T06:34:01.808Z,99103.50
2023-01-06T06:36:47.353Z,99101.97
2023-01-06T06:39:32.557Z,99094.81
2023-01-06T06:42:17.705Z,99090.13
2023-01-06T06:45:02.944Z,99091.34
2023-01-06T06:47:48.230Z,99091.78
2023-01-06T06:50:33.658Z,99092.19
2023-01-06T06:53:18.902Z,99085.06
2023-01-06T06:56:05.667Z,99090.28
2023-01-06T06:58:51.115Z,99088.69
2023-01-06T07:01:36.431Z,99090.69
2023-01-06T07:04:21.614Z,99091.13
2023-01-06T07:07:06.770Z,99091.13
2023-01-06T07:09:52.194Z,99097.09
2023-01-06T07:12:37.345Z,99099.44
2023-01-06T07:15:22.749Z,99093.53
2023-01-06T07:18:08.024Z,99090.75
2023-01-06T07:20:54.080Z,99087.97
2023-01-06T07:23:39.414Z,99083.63
2023-01-06T07:26:24.642Z,99079.28
2023-01-06T07:29:09.932Z,99082.06
2023-01-06T07:31:55.103Z,99084.03
2023-01-06T07:34:40.457Z,99069.38
2023-01-06T07:37:25.731Z,99065.81
2023-01-06T07:40:11.635Z,99073.78
2023-01-06T07:42:56.981Z,99071.00
2023-01-06T07:45:42.112Z,99071.44
2023-01-06T07:48:27.531Z,99070.66
2023-01-06T07:51:12.779Z,99067.09
2023-01-06T07:53:57.990Z,99068.28
2023-01-06T07:56:44.160Z,99061.19
2023-01-06T07:59:29.543Z,99060.41
2023-01-06T08:02:14.813Z,99058.81
2023-01-06T08:05:00.473Z,99056.03
2023-01-06T08:07:45.773Z,99051.72
2023-01-06T08:10:31.128Z,99047.78
2023-01-06T08:13:16.914Z,99054.91
2023-01-06T08:16:08.389Z,99053.34
2023-01-06T08:18:53.922Z,99053.00
2023-01-06T08:21:39.098Z,99060.09
2023-01-06T08:24:24.409Z,99059.75
2023-01-06T08:27:09.668Z,99052.22
2023-01-06T08:29:55.480Z,99045.84
2023-01-06T08:32:41.058Z,99048.63
2023-01-06T08:35:26.906Z,99037.16
2023-01-06T08:38:12.508Z,99040.75
2023-01-06T08:40:59.680Z,99035.97
2023-01-06T08:43:46.310Z,99037.16
2023-01-06T08:46:31.915Z,99041.16
2023-01-06T08:49:17.318Z,99055.84
2023-01-06T08:52:02.672Z,99050.69
2023-01-06T08:54:48.041Z,99059.03
2023-01-06T08:57:33.991Z,99058.25
2023-01-06T09:00:19.625Z,99063.81
2023-01-06T09:03:05.328Z,99072.16
2023-01-06T09:05:56.582Z,99063.03
2023-01-06T09:08:42.231Z,99065.03
2023-01-06T09:11:27.786Z,99063.81
2023-01-06T09:14:16.344Z,99063.81
2023-01-06T09:17:01.945Z,99072.59
2023-01-06T09:19:47.376Z,99075.38
2023-01-06T09:22:32.556Z,99071.00
2023-01-06T09:25:18.374Z,99069.81
2023-01-06T09:28:03.758Z,99074.56
2023-01-06T09:30:49.279Z,99068.22
2023-01-06T09:33:34.956Z,99071.00
2023-01-06T09:36:20.643Z,99067.03
2023-01-06T09:39:05.945Z,99053.56
2023-01-06T09:42:14.193Z,99054.34
2023-01-06T09:45:14.067Z,99043.22
2023-01-06T09:48:03.980Z,99048.00
2023-01-06T09:50:56.959Z,99040.44
2023-01-06T09:53:49.215Z,99034.91
2023-01-06T09:56:34.710Z,99038.44
2023-01-06T09:59:19.844Z,99032.13
2023-01-06T10:02:14.617Z,99026.56
2023-01-06T10:05:00.256Z,99011.47
2023-01-06T10:08:23.778Z,99018.22
2023-01-06T10:11:19.514Z,99014.25
2023-01-06T10:14:19.017Z,99009.13
2023-01-06T10:17:07.355Z,99004.34
2023-01-06T10:20:14.539Z,98988.91
2023-01-06T10:23:21.797Z,98997.22
2023-01-06T10:26:22.041Z,98996.00
2023-01-06T10:29:18.481Z,99003.56
2023-01-06T10:32:06.403Z,98996.00
2023-01-06T10:34:52.243Z,99000.78
2023-01-06T10:37:41.909Z,98987.66
2023-01-06T10:40:30.506Z,98996.00
2023-01-06T10:43:15.993Z,98984.13
2023-01-06T10:46:01.259Z,98989.66
2023-01-06T10:48:49.312Z,98981.75
2023-01-06T10:51:49.027Z,98977.78
2023-01-06T10:54:34.507Z,98973.00
2023-01-06T10:57:35.857Z,98967.09
2023-01-06T11:00:23.845Z,98966.66
2023-01-06T11:03:32.476Z,98967.88
2023-01-06T11:06:30.273Z,98955.97
2023-01-06T11:09:41.500Z,98967.88
2023-01-06T11:12:29.811Z,98969.88
2023-01-06T11:15:22.467Z,98965.09
2023-01-06T11:18:24.870Z,98962.75
2023-01-06T11:21:14.403Z,98959.13
2023-01-06T11:24:15.941Z,98951.66
2023-01-06T11:27:14.355Z,98949.66
2023-01-06T11:30:19.877Z,98938.53
2023-01-06T11:33:13.955Z,98946.41
2023-01-06T11:36:09.338Z,98950.41
2023-01-06T11:39:04.158Z,98962.75
2023-01-06T11:41:52.720Z,98961.94
2023-01-06T11:44:41.647Z,98953.19
2023-01-06T11:47:27.693Z,98947.66
2023-01-06T11:50:20.054Z,98948.06
2023-01-06T11:53:16.767Z,98953.63
2023-01-06T11:56:18.648Z,98948.06
2023-01-06T11:59:10.739Z,98956.41
2023-01-06T12:01:59.464Z,98957.22
2023-01-06T12:04:52.143Z,98953.63
2023-01-06T12:07:49.931Z,98943.72
2023-01-06T12:10:37.768Z,98952.84
2023-01-06T12:13:23.856Z,98954.06
2023-01-06T12:16:32.652Z,98961.19
2023-01-06T12:19:40.278Z,98954.84
2023-01-06T12:22:33.825Z,98959.63
2023-01-06T12:25:21.383Z,98961.19
2023-01-06T12:28:18.420Z,98957.63
2023-01-06T12:31:10.046Z,98959.63
2023-01-06T12:34:16.396Z,98966.38
2023-01-06T12:37:09.205Z,98963.19
2023-01-06T12:40:01.187Z,98965.97
2023-01-06T12:43:05.113Z,98967.16
2023-01-06T12:46:32.623Z,98972.72
2023-01-06T12:49:24.312Z,98967.97
2023-01-06T12:52:17.875Z,98974.72
2023-01-06T12:55:04.274Z,98977.50
2023-01-06T12:57:59.092Z,98985.03
2023-01-06T13:00:53.690Z,98980.25
2023-01-06T13:03:57.125Z,98978.25
2023-01-06T13:07:18.252Z,98971.16
2023-01-06T13:10:30.937Z,98979.13
2023-01-06T13:13:54.999Z,98976.72
2023-01-06T13:16:53.419Z,98957.28
2023-01-06T13:19:51.187Z,98957.28
2023-01-06T13:22:59.822Z,98957.28
2023-01-06T13:26:08.157Z,98951.72
2023-01-06T13:29:14.775Z,98955.34
2023-01-06T13:32:03.237Z,98961.25
2023-01-06T13:34:59.340Z,98957.28
2023-01-06T13:38:05.998Z,98951.34
2023-01-06T13:40:53.359Z,98955.25
2023-01-06T13:43:39.802Z,98955.69
2023-01-06T13:46:27.250Z,98951.72
2023-01-06T13:49:12.530Z,98951.72
2023-01-06T13:51:58.159Z,98953.63
2023-01-06T13:54:43.381Z,98957.97
2023-01-06T13:57:33.575Z,98960.66
2023-01-06T14:00:43.166Z,98967.72
2023-01-06T14:03:28.618Z,98962.16
2023-01-06T14:06:40.788Z,98968.00
2023-01-06T14:09:27.369Z,98971.84
2023-01-06T14:12:35.187Z,98979.31
2023-01-06T14:15:31.755Z,98979.25
2023-01-06T14:18:35.178Z,98983.91
2023-01-06T14:21:28.384Z,98981.00
2023-01-06T14:24:31.407Z,98977.72
2023-01-06T14:27:17.067Z,98976.84
2023-01-06T14:30:19.351Z,98975.63
2023-01-06T14:33:22.355Z,98977.91
2023-01-06T14:36:15.795Z,98985.72
2023-01-06T14:39:03.384Z,98980.94
2023-01-06T14:42:06.512Z,98998.34
2023-01-06T14:44:55.612Z,99000.69
2023-01-06T14:47:47.636Z,98995.47
2023-01-06T14:50:47.124Z,99002.94
2023-01-06T14:53:43.051Z,99001.72
2023-01-06T14:56:31.151Z,99003.66
2023-01-06T14:59:16.752Z,99005.56
2023-01-06T15:02:13.897Z,98999.56
2023-01-06T15:04:59.899Z,99002.34
2023-01-06T15:07:59.011Z,99005.03
2023-01-06T15:10:52.667Z,99017.72
2023-01-06T15:13:37.935Z,99022.41
2023-01-06T15:16:32.705Z,99016.78
2023-01-06T15:19:18.077Z,99011.56
2023-01-06T15:22:08.394Z,99010.00
2023-01-06T15:24:54.863Z,99019.13
2023-01-06T15:27:48.260Z,99015.13
2023-01-06T15:30:36.771Z,99018.25
2023-01-06T15:33:25.453Z,99019.38
2023-01-06T15:36:20.791Z,99022.94
2023-01-06T15:39:10.325Z,99035.66
2023-01-06T15:41:56.966Z,99032.41
2023-01-06T15:45:04.346Z,99026.06
2023-01-06T15:47:51.355Z,99027.66
2023-01-06T15:50:36.881Z,99032.34
2023-01-06T15:53:28.162Z,99035.13
2023-01-06T15:56:21.016Z,99055.31
2023-01-06T15:59:14.119Z,99045.72
2023-01-06T16:01:59.938Z,99039.31
2023-01-06T16:04:46.270Z,99044.78
2023-01-06T16:07:41.232Z,99049.94
2023-01-06T16:10:37.737Z,99047.50
2023-01-06T16:13:29.489Z,99057.06
2023-01-06T16:16:15.001Z,99056.19
2023-01-06T16:19:16.255Z,99058.09
2023-01-06T16:22:08.186Z,99054.13
2023-01-06T16:24:54.169Z,99049.22
2023-01-06T16:27:39.481Z,99056.38
2023-01-06T16:30:36.388Z,99061.16
2023-01-06T16:33:39.413Z,99056.78
2023-01-06T16:36:25.355Z,99052.00
2023-01-06T16:39:10.588Z,99061.59
2023-01-06T16:41:58.912Z,99056.00
2023-01-06T16:44:44.225Z,99060.03
2023-01-06T16:47:29.516Z,99063.25
2023-01-06T16:50:36.029Z,99074.81
2023-01-06T16:53:22.943Z,99077.94
2023-01-06T16:56:16.566Z,99088.38
2023-01-06T16:59:02.385Z,99084.38
2023-01-06T17:01:48.815Z,99083.25
2023-01-06T17:04:35.802Z,99088.38
2023-01-06T17:07:21.612Z,99083.69
2023-01-06T17:10:15.406Z,99086.47
2023-01-06T17:13:25.423Z,99092.03
2023-01-06T17:16:10.877Z,99092.44
2023-01-06T17:19:07.150Z,99094.81
2023-01-06T17:22:02.851Z,99093.22
2023-01-06T17:24:52.722Z,99096.00
2023-01-06T17:27:38.917Z,99101.22
2023-01-06T17:30:24.212Z,99110.81
2023-01-06T17:33:12.103Z,99102.88
2023-01-06T17:35:57.672Z,99113.63
2023-01-06T17:38:47.520Z,99108.53
2023-01-06T17:41:32.843Z,99111.31
2023-01-06T17:44:21.951Z,99119.66
2023-01-06T17:47:29.843Z,99116.41
2023-01-06T17:50:33.863Z,99120.44
2023-01-06T17:53:54.330Z,99112.06
2023-01-06T17:56:40.183Z,99117.22
2023-01-06T17:59:25.572Z,99124.00
2023-01-06T18:02:44.364Z,99130.78
2023-01-06T18:05:36.063Z,99128.34
2023-01-06T18:08:26.487Z,99131.13
2023-01-06T18:11:12.254Z,99137.91
2023-01-06T18:14:15.538Z,99131.91
2023-01-06T18:17:30.400Z,99135.44
2023-01-06T18:20:16.234Z,99138.22
2023-01-06T18:23:02.285Z,99141.03
2023-01-06T18:25:52.736Z,99149.81
2023-01-06T18:28:38.181Z,99141.91
2023-01-06T18:31:24.062Z,99141.91
2023-01-06T18:34:36.059Z,99158.59
2023-01-06T18:37:35.639Z,99146.69
2023-01-06T18:40:25.002Z,99149.91
2023-01-06T18:43:29.738Z,99140.78
2023-01-06T18:46:17.649Z,99157.13
2023-01-06T18:49:09.632Z,99152.75
2023-01-06T18:51:55.382Z,99144.34
2023-01-06T18:54:40.723Z,99148.31
2023-01-06T18:57:30.842Z,99149.91
2023-01-06T19:00:52.678Z,99145.06
2023-01-06T19:03:41.637Z,99151.38
2023-01-06T19:06:35.810Z,99154.16
2023-01-06T19:09:46.419Z,99167.31
2023-01-06T19:12:35.988Z,99176.84
2023-01-06T19:15:24.722Z,99178.44
2023-01-06T19:18:18.311Z,99182.38
2023-01-06T19:21:13.434Z,99167.25
2023-01-06T19:24:00.556Z,99172.38
2023-01-06T19:26:45.954Z,99178.44
2023-01-06T19:29:33.424Z,99171.81
2023-01-06T19:32:20.429Z,99180.88
2023-01-06T19:35:22.709Z,99180.81
2023-01-06T19:38:45.324Z,99182.56
2023-01-06T19:41:33.632Z,99179.63
2023-01-06T19:44:20.826Z,99186.59
2023-01-06T19:47:30.232Z,99188.50
2023-01-06T19:50:25.477Z,99189.63
2023-01-06T19:53:40.751Z,99199.56
2023-01-06T19:56:44.533Z,99190.44
2023-01-06T19:59:33.912Z,99191.63
2023-01-06T20:02:44.320Z,99193.66
2023-01-06T20:05:31.921Z,99190.50
2023-01-06T20:08:17.424Z,99198.09
2023-01-06T20:11:03.199Z,99200.94
2023-01-06T20:13:50.144Z,99208.94
2023-01-06T20:16:36.000Z,99207.03
2023-01-06T20:19:21.730Z,99209.88
2023-01-06T20:22:07.099Z,99215.56
2023-01-06T20:24:52.454Z,99215.19
2023-01-06T20:27:37.726Z,99222.41
2023-01-06T20:30:23.141Z,99216.91
2023-01-06T20:33:10.020Z,99221.34
2023-01-06T20:35:55.463Z,99222.16
2023-01-06T20:38:40.796Z,99218.25
2023-01-06T20:41:26.083Z,99217.53
2023-01-06T20:44:13.211Z,99219.63
2023-01-06T20:46:58.511Z,99225.63
2023-01-06T20:49:43.811Z,99235.16
2023-01-06T20:52:29.213Z,99225.25
2023-01-06T20:55:14.836Z,99226.91
2023-01-06T20:58:00.639Z,99226.56
2023-01-06T21:00:46.288Z,99233.34
2023-01-06T21:03:49.851Z,99236.19
2023-01-06T21:06:35.813Z,99237.75
2023-01-06T21:09:21.214Z,99237.38
2023-01-06T21:12:06.652Z,99235.06
2023-01-06T21:14:52.404Z,99233.47
2023-01-06T21:17:37.815Z,99234.69
2023-01-06T21:20:23.345Z,99237.06
2023-01-06T21:23:10.050Z,99229.13
2023-01-06T21:25:55.519Z,99229.13
2023-01-06T21:28:40.781Z,99235.88
2023-01-06T21:31:26.006Z,99235.53
2023-01-06T21:34:11.176Z,99231.19
2023-01-06T21:36:56.631Z,99240.41
2023-01-06T21:39:41.861Z,99242.06
2023-01-06T21:42:45.573Z,99235.78
2023-01-06T21:45:30.850Z,99235.03
2023-01-06T21:48:16.122Z,99233.56
2023-01-06T21:51:01.632Z,99231.19
2023-01-06T21:53:47.195Z,99228.03
2023-01-06T21:56:34.880Z,99231.28
2023-01-06T21:59:20.701Z,99226.13
2023-01-06T22:02:06.635Z,99228.13
2023-01-06T22:04:52.612Z,99237.66
2023-01-06T22:07:43.209Z,99236.91
2023-01-06T22:10:28.813Z,99238.91
2023-01-06T22:13:18.427Z,99223.41
2023-01-06T22:16:03.785Z,99226.19
2023-01-06T22:18:49.039Z,99232.53
2023-01-06T22:21:36.053Z,99234.53
2023-01-06T22:24:22.419Z,99237.31
2023-01-06T22:27:07.755Z,99241.31
2023-01-06T22:29:53.149Z,99238.53
2023-01-06T22:32:43.348Z,99244.09
2023-01-06T22:35:28.928Z,99243.31
2023-01-06T22:38:14.569Z,99246.88
2023-01-06T22:41:00.169Z,99246.09
2023-01-06T22:43:45.564Z,99245.28
2023-01-06T22:46:30.892Z,99251.66
2023-01-06T22:49:16.063Z,99252.84
2023-01-06T22:52:01.335Z,99242.50
2023-01-06T22:54:46.620Z,99254.44
2023-01-06T22:57:31.976Z,99257.63
2023-01-06T23:00:18.732Z,99261.97
2023-01-06T23:03:04.141Z,99252.06
2023-01-06T23:06:09.731Z,99259.63
2023-01-06T23:09:00.586Z,99257.63
2023-01-06T23:11:46.351Z,99250.50
2023-01-06T23:14:31.852Z,99250.50
2023-01-06T23:17:17.197Z,99242.16
2023-01-06T23:20:02.780Z,99249.72
2023-01-06T23:22:48.295Z,99251.72
2023-01-06T23:25:33.626Z,99243.38
2023-01-06T23:28:18.752Z,99243.38
2023-01-06T23:31:07.476Z,99237.81
2023-01-06T23:33:56.231Z,99246.16
2023-01-06T23:36:42.166Z,99241.38
2023-01-06T23:39:27.445Z,99243.38
2023-01-06T23:42:12.788Z,99249.72
2023-01-06T23:44:58.010Z,99239.81
2023-01-06T23:47:43.366Z,99238.59
2023-01-06T23:50:28.471Z,99237.03
2023-01-06T23:53:13.719Z,99235.81
2023-01-06T23:56:07.849Z,99228.25
2023-01-06T23:58:55.826Z,99229.47
